createdAt,value
2018-08-20T00:00:51.960Z,21.78
2018-08-20T00:01:51.933Z,21.7
2018-08-20T00:02:51.849Z,21.84
2018-08-20T00:03:51.928Z,21.69
2018-08-20T00:04:51.863Z,21.74
2018-08-20T00:05:51.923Z,21.72
2018-08-20T00:06:51.920Z,21.83
2018-08-20T00:07:51.857Z,21.74
2018-08-20T00:08:51.949Z,21.84
2018-08-20T00:09:51.851Z,21.81
2018-08-20T00:10:51.861Z,21.84
2018-08-20T00:11:51.968Z,21.7
2018-08-20T00:12:51.911Z,21.7
2018-08-20T00:13:51.936Z,21.59
2018-08-20T00:14:52.053Z,21.58
2018-08-20T00:15:52.040Z,21.66
2018-08-20T00:16:52.002Z,21.66
2018-08-20T00:17:52.410Z,21.59
2018-08-20T00:18:51.983Z,21.5
2018-08-20T00:19:51.928Z,21.58
2018-08-20T00:20:51.999Z,21.59
2018-08-20T00:21:52.029Z,21.51
2018-08-20T00:22:51.929Z,21.51
2018-08-20T00:23:51.907Z,21.37
2018-08-20T00:24:51.986Z,21.32
2018-08-20T00:25:51.957Z,21.41
2018-08-20T00:26:51.948Z,21.4
2018-08-20T00:27:52.035Z,21.4
2018-08-20T00:28:52.021Z,21.3
2018-08-20T00:29:52.005Z,21.38
2018-08-20T00:30:51.961Z,21.38
2018-08-20T00:31:52.027Z,21.3
2018-08-20T00:32:51.954Z,21.44
2018-08-20T00:33:51.972Z,21.45
2018-08-20T00:34:51.986Z,21.48
2018-08-20T00:35:51.968Z,21.44
2018-08-20T00:36:51.998Z,21.41
2018-08-20T00:37:52.019Z,21.37
2018-08-20T00:38:51.972Z,21.25
2018-08-20T00:39:52.006Z,21.38
2018-08-20T00:40:51.981Z,21.17
2018-08-20T00:41:51.999Z,21.15
2018-08-20T00:42:51.967Z,21.22
2018-08-20T00:43:52.068Z,21.19
2018-08-20T00:44:51.984Z,21.29
2018-08-20T00:45:52.019Z,21.2
2018-08-20T00:46:51.988Z,21.17
2018-08-20T00:47:51.981Z,21.2
2018-08-20T00:48:52.034Z,21.14
2018-08-20T00:49:52.018Z,21.11
2018-08-20T00:50:52.018Z,21.07
2018-08-20T00:51:52.026Z,21.2
2018-08-20T00:52:52.122Z,21.14
2018-08-20T00:53:51.996Z,21.23
2018-08-20T00:54:52.103Z,21.17
2018-08-20T00:55:52.077Z,21.01
2018-08-20T00:56:51.960Z,21.05
2018-08-20T00:57:51.985Z,21.1
2018-08-20T00:58:52.031Z,21.1
2018-08-20T00:59:52.002Z,21.04
2018-08-20T01:00:52.042Z,21.04
2018-08-20T01:01:52.028Z,20.96
2018-08-20T01:02:52.018Z,21.03
2018-08-20T01:03:51.982Z,21
2018-08-20T01:04:52.068Z,21.01
2018-08-20T01:05:52.101Z,20.96
2018-08-20T01:06:52.023Z,20.98
2018-08-20T01:07:52.079Z,20.9
2018-08-20T01:08:52.093Z,20.86
2018-08-20T01:09:52.056Z,20.9
2018-08-20T01:10:52.016Z,20.78
2018-08-20T01:11:52.092Z,20.77
2018-08-20T01:12:52.008Z,20.86
2018-08-20T01:13:52.081Z,20.82
2018-08-20T01:14:52.105Z,20.8
2018-08-20T01:15:52.041Z,20.82
2018-08-20T01:16:52.049Z,20.8
2018-08-20T01:17:52.084Z,20.83
2018-08-20T01:18:52.035Z,20.78
2018-08-20T01:19:52.068Z,20.83
2018-08-20T01:20:52.010Z,20.8
2018-08-20T01:21:52.016Z,20.74
2018-08-20T01:22:52.147Z,20.78
2018-08-20T01:23:52.089Z,20.73
2018-08-20T01:24:52.060Z,20.75
2018-08-20T01:25:52.105Z,20.8
2018-08-20T01:26:52.118Z,20.8
2018-08-20T01:27:52.052Z,20.83
2018-08-20T01:28:52.083Z,20.85
2018-08-20T01:29:52.071Z,20.82
2018-08-20T01:30:52.101Z,20.74
2018-08-20T01:31:52.022Z,20.77
2018-08-20T01:32:52.073Z,20.74
2018-08-20T01:33:52.082Z,20.7
2018-08-20T01:34:52.059Z,20.78
2018-08-20T01:35:52.130Z,20.73
2018-08-20T01:36:52.129Z,20.82
2018-08-20T01:37:52.056Z,20.77
2018-08-20T01:47:29.245Z,20.78
2018-08-20T01:47:41.721Z,20.46
2018-08-20T01:48:41.580Z,20.49
2018-08-20T01:49:41.642Z,20.56
2018-08-20T01:50:41.613Z,20.52
2018-08-20T01:51:41.597Z,20.52
2018-08-20T01:52:41.595Z,20.59
2018-08-20T01:53:41.636Z,20.39
2018-08-20T01:54:41.580Z,20.48
2018-08-20T01:55:41.571Z,20.52
2018-08-20T01:56:41.714Z,20.48
2018-08-20T01:57:41.667Z,20.37
2018-08-20T01:58:41.632Z,20.49
2018-08-20T01:59:41.711Z,20.32
2018-08-20T02:00:41.572Z,20.27
2018-08-20T02:01:41.619Z,20.24
2018-08-20T02:02:41.759Z,20.22
2018-08-20T02:03:41.688Z,20.27
2018-08-20T02:04:41.681Z,20.26
2018-08-20T02:05:41.615Z,20.27
2018-08-20T02:06:41.690Z,20.27
2018-08-20T02:07:41.632Z,20.26
2018-08-20T02:08:41.767Z,20.27
2018-08-20T02:09:41.803Z,20.32
2018-08-20T02:10:41.732Z,20.33
2018-08-20T02:11:41.693Z,20.24
2018-08-20T02:12:41.618Z,20.26
2018-08-20T02:13:41.907Z,20.22
2018-08-20T02:14:41.781Z,20.17
2018-08-20T02:15:41.617Z,20.22
2018-08-20T02:16:41.581Z,20.24
2018-08-20T02:17:41.596Z,20.14
2018-08-20T02:18:41.901Z,20.17
2018-08-20T02:19:41.553Z,20.24
2018-08-20T02:20:41.546Z,20.18
2018-08-20T02:21:41.685Z,20.12
2018-08-20T02:22:41.559Z,20.12
2018-08-20T02:23:41.601Z,20.02
2018-08-20T02:24:41.608Z,20.11
2018-08-20T02:25:41.604Z,20.18
2018-08-20T02:26:41.618Z,20.17
2018-08-20T02:27:42.938Z,20.12
2018-08-20T02:28:41.591Z,20.18
2018-08-20T02:29:41.656Z,20.19
2018-08-20T02:30:41.588Z,20.1
2018-08-20T02:31:41.603Z,20.11
2018-08-20T02:32:41.607Z,20.15
2018-08-20T02:33:41.581Z,20.14
2018-08-20T02:34:41.590Z,20.14
2018-08-20T02:35:41.744Z,20.07
2018-08-20T02:36:41.668Z,20.04
2018-08-20T02:37:41.618Z,20.02
2018-08-20T02:38:41.730Z,19.92
2018-08-20T02:39:41.736Z,19.96
2018-08-20T02:40:41.740Z,19.96
2018-08-20T02:41:41.762Z,19.78
2018-08-20T02:42:41.749Z,19.84
2018-08-20T02:43:41.692Z,19.81
2018-08-20T02:44:41.770Z,19.78
2018-08-20T02:45:41.699Z,19.75
2018-08-20T02:46:41.767Z,19.62
2018-08-20T02:47:41.726Z,19.64
2018-08-20T02:48:41.922Z,19.67
2018-08-20T02:49:41.770Z,19.75
2018-08-20T02:50:41.791Z,19.64
2018-08-20T02:51:41.725Z,19.71
2018-08-20T02:52:41.644Z,19.75
2018-08-20T02:53:41.707Z,19.72
2018-08-20T02:54:41.752Z,19.6
2018-08-20T02:55:41.791Z,19.59
2018-08-20T02:56:41.792Z,19.71
2018-08-20T02:57:41.780Z,19.59
2018-08-20T02:58:41.719Z,19.59
2018-08-20T02:59:41.810Z,19.55
2018-08-20T03:00:41.767Z,19.59
2018-08-20T03:01:41.765Z,19.48
2018-08-20T03:02:41.835Z,19.45
2018-08-20T03:03:41.916Z,19.52
2018-08-20T03:04:41.716Z,19.41
2018-08-20T03:05:41.792Z,19.39
2018-08-20T03:06:41.760Z,19.42
2018-08-20T03:07:41.741Z,19.49
2018-08-20T03:08:41.668Z,19.41
2018-08-20T03:09:41.635Z,19.32
2018-08-20T03:10:41.652Z,19.34
2018-08-20T03:11:41.658Z,19.38
2018-08-20T03:12:41.655Z,19.3
2018-08-20T03:13:41.638Z,19.32
2018-08-20T03:14:41.716Z,19.2
2018-08-20T03:15:41.733Z,19.19
2018-08-20T03:16:41.775Z,19.15
2018-08-20T03:17:41.746Z,19.24
2018-08-20T03:18:41.645Z,19.24
2018-08-20T03:19:41.701Z,19.26
2018-08-20T03:20:41.745Z,19.26
2018-08-20T03:21:41.659Z,19.3
2018-08-20T03:22:41.757Z,19.34
2018-08-20T03:23:41.701Z,19.19
2018-08-20T03:24:41.702Z,19.24
2018-08-20T03:34:19.737Z,19.19
2018-08-20T03:45:18.676Z,19.08
2018-08-20T03:45:30.948Z,19.07
2018-08-20T03:46:31.005Z,19.15
2018-08-20T03:47:30.950Z,18.97
2018-08-20T03:48:30.990Z,19.07
2018-08-20T03:49:30.979Z,18.98
2018-08-20T03:50:30.992Z,18.89
2018-08-20T03:51:30.934Z,18.89
2018-08-20T03:52:31.005Z,18.96
2018-08-20T03:53:30.952Z,18.88
2018-08-20T03:54:30.972Z,18.82
2018-08-20T03:55:30.996Z,18.88
2018-08-20T03:56:30.951Z,18.91
2018-08-20T03:57:30.967Z,18.83
2018-08-20T03:58:30.998Z,18.82
2018-08-20T03:59:30.990Z,18.88
2018-08-20T04:00:31.013Z,18.83
2018-08-20T04:01:30.967Z,18.78
2018-08-20T04:02:31.046Z,18.92
2018-08-20T04:03:30.981Z,18.83
2018-08-20T04:04:30.979Z,18.76
2018-08-20T04:05:30.981Z,18.71
2018-08-20T04:06:30.966Z,18.66
2018-08-20T04:07:30.985Z,18.78
2018-08-20T04:08:31.000Z,18.64
2018-08-20T04:09:31.076Z,18.63
2018-08-20T04:10:31.020Z,18.66
2018-08-20T04:11:30.934Z,18.6
2018-08-20T04:12:30.935Z,18.66
2018-08-20T04:13:31.037Z,18.55
2018-08-20T04:14:31.014Z,18.51
2018-08-20T04:15:31.014Z,18.42
2018-08-20T04:16:31.015Z,18.39
2018-08-20T04:23:57.782Z,18.39
2018-08-20T04:24:10.140Z,18.41
2018-08-20T04:25:10.062Z,18.31
2018-08-20T04:26:12.148Z,18.41
2018-08-20T04:27:10.060Z,18.37
2018-08-20T04:28:10.115Z,18.39
2018-08-20T04:29:10.090Z,18.33
2018-08-20T04:30:10.108Z,18.41
2018-08-20T04:31:10.135Z,18.43
2018-08-20T04:32:10.110Z,18.45
2018-08-20T04:33:10.082Z,18.41
2018-08-20T04:34:10.079Z,18.46
2018-08-20T04:35:10.040Z,18.51
2018-08-20T04:36:10.060Z,18.43
2018-08-20T04:37:10.090Z,18.45
2018-08-20T04:38:10.108Z,18.53
2018-08-20T04:39:10.032Z,18.57
2018-08-20T04:40:10.074Z,18.63
2018-08-20T04:41:10.233Z,18.63
2018-08-20T04:42:10.235Z,18.63
2018-08-20T04:43:10.075Z,18.48
2018-08-20T04:44:10.143Z,18.49
2018-08-20T04:45:10.310Z,18.55
2018-08-20T04:46:10.268Z,18.52
2018-08-20T04:47:10.066Z,18.58
2018-08-20T04:48:10.111Z,18.57
2018-08-20T04:49:10.166Z,18.61
2018-08-20T04:50:10.425Z,18.64
2018-08-20T04:51:10.378Z,18.63
2018-08-20T04:52:10.139Z,18.66
2018-08-20T04:53:10.104Z,18.7
2018-08-20T04:54:10.099Z,18.7
2018-08-20T04:55:10.131Z,18.63
2018-08-20T04:56:10.090Z,18.73
2018-08-20T04:57:10.142Z,18.78
2018-08-20T04:58:10.140Z,18.68
2018-08-20T04:59:10.112Z,18.71
2018-08-20T05:00:10.114Z,18.67
2018-08-20T05:01:10.106Z,18.66
2018-08-20T05:02:10.127Z,18.71
2018-08-20T05:03:10.120Z,18.71
2018-08-20T05:04:10.207Z,18.74
2018-08-20T05:05:10.447Z,18.63
2018-08-20T05:06:10.091Z,18.66
2018-08-20T05:07:10.217Z,18.78
2018-08-20T05:08:10.174Z,18.61
2018-08-20T05:09:10.170Z,18.71
2018-08-20T05:10:10.298Z,18.71
2018-08-20T05:11:10.154Z,18.78
2018-08-20T05:12:10.148Z,18.7
2018-08-20T05:13:10.133Z,18.76
2018-08-20T05:14:10.248Z,18.78
2018-08-20T05:15:10.132Z,18.79
2018-08-20T05:16:10.153Z,18.86
2018-08-20T05:17:10.125Z,18.88
2018-08-20T05:18:10.190Z,19.04
2018-08-20T05:19:10.268Z,19.07
2018-08-20T05:20:10.373Z,18.96
2018-08-20T05:21:10.185Z,19.01
2018-08-20T05:22:10.194Z,19.04
2018-08-20T05:23:10.226Z,18.92
2018-08-20T05:24:10.198Z,19.07
2018-08-20T05:25:10.168Z,19.15
2018-08-20T05:26:10.272Z,19.16
2018-08-20T05:27:10.210Z,19.22
2018-08-20T05:28:10.159Z,19.19
2018-08-20T05:29:10.249Z,19.22
2018-08-20T05:30:10.268Z,19.27
2018-08-20T05:31:10.205Z,19.24
2018-08-20T05:32:10.152Z,19.39
2018-08-20T05:33:10.216Z,19.47
2018-08-20T05:34:10.167Z,19.55
2018-08-20T05:35:12.647Z,19.49
2018-08-20T05:36:10.204Z,19.55
2018-08-20T05:37:10.240Z,19.6
2018-08-20T05:38:10.158Z,19.6
2018-08-20T05:39:10.148Z,19.67
2018-08-20T05:40:10.160Z,19.59
2018-08-20T05:41:10.468Z,19.71
2018-08-20T05:42:10.220Z,19.82
2018-08-20T05:43:10.197Z,19.85
2018-08-20T05:44:10.159Z,19.94
2018-08-20T05:45:10.239Z,19.96
2018-08-20T05:46:10.234Z,20.02
2018-08-20T05:47:10.217Z,20
2018-08-20T05:48:10.177Z,20.02
2018-08-20T05:49:10.199Z,20.21
2018-08-20T05:50:10.199Z,20.21
2018-08-20T05:51:10.209Z,20.26
2018-08-20T05:52:10.234Z,20.24
2018-08-20T05:53:10.178Z,20.36
2018-08-20T05:54:10.182Z,20.5
2018-08-20T05:55:10.216Z,20.63
2018-08-20T05:56:10.227Z,20.55
2018-08-20T05:57:10.281Z,20.67
2018-08-20T05:58:10.256Z,20.74
2018-08-20T05:59:10.308Z,20.8
2018-08-20T06:00:10.301Z,20.89
2018-08-20T06:01:10.234Z,21.19
2018-08-20T06:02:10.238Z,21.43
2018-08-20T06:03:10.250Z,21.43
2018-08-20T06:04:10.179Z,21.6
2018-08-20T06:05:10.188Z,21.8
2018-08-20T06:06:10.223Z,21.97
2018-08-20T06:07:10.207Z,22.16
2018-08-20T06:08:10.243Z,22.31
2018-08-20T06:09:10.193Z,22.53
2018-08-20T06:10:10.214Z,22.58
2018-08-20T06:11:10.331Z,22.76
2018-08-20T06:12:10.272Z,23.01
2018-08-20T06:13:10.272Z,23.16
2018-08-20T06:14:10.221Z,23.28
2018-08-20T06:15:10.290Z,23.45
2018-08-20T06:16:10.248Z,23.66
2018-08-20T06:17:10.364Z,23.88
2018-08-20T06:18:10.302Z,24.07
2018-08-20T06:19:10.283Z,24.06
2018-08-20T06:20:10.249Z,24.13
2018-08-20T06:21:10.302Z,24.37
2018-08-20T06:22:10.302Z,24.59
2018-08-20T06:23:10.251Z,24.55
2018-08-20T06:24:10.291Z,24.75
2018-08-20T06:25:10.352Z,25.01
2018-08-20T06:26:10.335Z,25.29
2018-08-20T06:27:10.273Z,25.56
2018-08-20T06:28:10.265Z,25.73
2018-08-20T06:29:10.384Z,25.83
2018-08-20T06:30:10.456Z,25.81
2018-08-20T06:31:10.394Z,25.7
2018-08-20T06:32:10.273Z,25.8
2018-08-20T06:33:10.461Z,25.95
2018-08-20T06:34:10.266Z,26.01
2018-08-20T06:35:10.243Z,26.22
2018-08-20T06:36:10.217Z,26.41
2018-08-20T06:37:10.257Z,26.42
2018-08-20T06:38:10.292Z,26.76
2018-08-20T06:39:10.300Z,26.79
2018-08-20T06:40:10.243Z,26.86
2018-08-20T06:41:10.245Z,26.89
2018-08-20T06:42:10.247Z,26.93
2018-08-20T06:43:10.228Z,27.01
2018-08-20T06:44:10.305Z,27.16
2018-08-20T06:45:10.286Z,27.28
2018-08-20T06:46:10.342Z,26.97
2018-08-20T06:47:10.262Z,27.22
2018-08-20T06:48:10.290Z,27.34
2018-08-20T06:49:10.245Z,27.61
2018-08-20T06:50:10.318Z,27.66
2018-08-20T06:51:10.348Z,27.41
2018-08-20T06:52:10.344Z,27.81
2018-08-20T06:53:10.402Z,28.03
2018-08-20T06:54:10.312Z,28.25
2018-08-20T06:55:10.365Z,28.28
2018-08-20T06:56:10.314Z,28.5
2018-08-20T06:57:10.409Z,28.68
2018-08-20T06:58:10.452Z,28.89
2018-08-20T06:59:10.363Z,28.74
2018-08-20T07:00:10.298Z,28.45
2018-08-20T07:01:10.360Z,28.25
2018-08-20T07:02:10.388Z,28.57
2018-08-20T07:03:10.387Z,28.75
2018-08-20T07:04:10.353Z,28.57
2018-08-20T07:05:10.374Z,28.22
2018-08-20T07:06:10.354Z,28.5
2018-08-20T07:07:10.318Z,28.41
2018-08-20T07:08:10.321Z,28.62
2018-08-20T07:09:10.331Z,28.3
2018-08-20T07:10:10.333Z,28.19
2018-08-20T07:11:10.333Z,28.72
2018-08-20T07:12:10.344Z,28.65
2018-08-20T07:13:10.358Z,28.92
2018-08-20T07:14:10.320Z,28.96
2018-08-20T07:15:10.358Z,28.53
2018-08-20T07:16:10.367Z,28.94
2018-08-20T07:17:10.371Z,28.67
2018-08-20T07:18:10.314Z,28.94
2018-08-20T07:19:10.367Z,28.84
2018-08-20T07:20:10.288Z,29.07
2018-08-20T07:21:10.300Z,29.13
2018-08-20T07:22:10.306Z,28.45
2018-08-20T07:23:10.515Z,28.83
2018-08-20T07:24:10.361Z,29.28
2018-08-20T07:25:10.361Z,29.07
2018-08-20T07:26:10.377Z,28.6
2018-08-20T07:27:10.351Z,29.16
2018-08-20T07:28:10.389Z,28.97
2018-08-20T07:29:10.333Z,29.03
2018-08-20T07:30:10.405Z,29.02
2018-08-20T07:31:10.413Z,29.21
2018-08-20T07:32:10.389Z,29.34
2018-08-20T07:33:10.444Z,29.16
2018-08-20T07:34:10.386Z,28.8
2018-08-20T07:36:31.322Z,29.52
2018-08-20T07:37:31.371Z,29.69
2018-08-20T07:38:31.336Z,29.5
2018-08-20T07:39:31.300Z,29.62
2018-08-20T07:40:31.257Z,28.82
2018-08-20T07:41:31.315Z,29.31
2018-08-20T07:42:31.457Z,29.32
2018-08-20T07:43:31.269Z,29.27
2018-08-20T07:44:31.278Z,29.35
2018-08-20T07:45:31.287Z,29.35
2018-08-20T07:46:31.348Z,29.4
2018-08-20T07:47:31.285Z,29.39
2018-08-20T07:48:31.327Z,28.74
2018-08-20T07:49:31.323Z,28.87
2018-08-20T07:50:31.320Z,29.2
2018-08-20T07:51:31.262Z,29.35
2018-08-20T07:52:31.356Z,29.52
2018-08-20T07:53:31.303Z,29.03
2018-08-20T07:54:31.350Z,29.31
2018-08-20T07:55:31.439Z,28.94
2018-08-20T07:56:31.293Z,29.27
2018-08-20T07:57:31.304Z,28.57
2018-08-20T07:58:31.297Z,28.56
2018-08-20T07:59:31.313Z,28.89
2018-08-20T08:00:31.339Z,28.83
2018-08-20T08:01:31.340Z,28.28
2018-08-20T08:02:31.316Z,28.55
2018-08-20T08:03:31.270Z,28.47
2018-08-20T08:04:31.719Z,28.41
2018-08-20T08:05:31.317Z,28.75
2018-08-20T08:06:31.360Z,29.27
2018-08-20T08:07:31.312Z,29.42
2018-08-20T08:08:31.306Z,29.58
2018-08-20T08:09:31.307Z,28.96
2018-08-20T08:10:31.324Z,28.86
2018-08-20T08:11:31.282Z,29.27
2018-08-20T08:12:31.333Z,29.47
2018-08-20T08:13:31.327Z,29.73
2018-08-20T08:14:31.365Z,28.93
2018-08-20T08:15:31.329Z,29.28
2018-08-20T08:16:31.312Z,29.73
2018-08-20T08:17:31.316Z,29.53
2018-08-20T08:18:31.316Z,29.47
2018-08-20T08:19:31.301Z,29.37
2018-08-20T08:20:31.296Z,29.58
2018-08-20T08:21:31.334Z,29.76
2018-08-20T08:22:31.310Z,29.76
2018-08-20T08:23:31.319Z,29.52
2018-08-20T08:24:31.333Z,29.83
2018-08-20T08:25:31.327Z,29.86
2018-08-20T08:26:31.437Z,30.14
2018-08-20T08:27:31.305Z,29.83
2018-08-20T08:28:31.315Z,30.01
2018-08-20T08:29:31.363Z,30.17
2018-08-20T08:30:31.323Z,30.06
2018-08-20T08:31:31.315Z,29.95
2018-08-20T08:32:31.341Z,30.18
2018-08-20T08:33:31.311Z,30.24
2018-08-20T08:34:31.323Z,30.11
2018-08-20T08:35:31.327Z,30.02
2018-08-20T08:36:31.338Z,30.51
2018-08-20T08:37:31.333Z,30.01
2018-08-20T08:38:31.379Z,29.71
2018-08-20T08:39:31.361Z,30.21
2018-08-20T08:40:31.359Z,30.32
2018-08-20T08:41:31.393Z,30.06
2018-08-20T08:42:31.352Z,30.44
2018-08-20T08:43:31.353Z,30.44
2018-08-20T08:48:02.535Z,30.49
2018-08-20T08:49:02.158Z,29.99
2018-08-20T08:50:02.218Z,30.26
2018-08-20T08:51:02.180Z,30.65
2018-08-20T08:52:02.154Z,30.49
2018-08-20T08:53:02.123Z,30.7
2018-08-20T08:54:02.144Z,30.73
2018-08-20T08:55:02.154Z,30.43
2018-08-20T08:56:02.179Z,30.8
2018-08-20T08:57:02.124Z,30.67
2018-08-20T08:58:02.148Z,30.67
2018-08-20T08:59:02.138Z,30.59
2018-08-20T09:00:02.149Z,30.1
2018-08-20T09:01:02.135Z,30.73
2018-08-20T09:07:42.040Z,30.88
2018-08-20T09:08:42.275Z,30.96
2018-08-20T09:09:42.090Z,31.2
2018-08-20T09:10:42.041Z,31.15
2018-08-20T09:11:42.068Z,31.45
2018-08-20T09:12:42.058Z,31.59
2018-08-20T09:13:42.156Z,31.41
2018-08-20T09:20:21.713Z,30.21
2018-08-20T09:21:21.668Z,30.08
2018-08-20T09:22:21.702Z,30.43
2018-08-20T09:23:21.768Z,30.8
2018-08-20T09:24:21.706Z,30.85
2018-08-20T09:25:21.714Z,31.14
2018-08-20T09:26:21.685Z,31.44
2018-08-20T09:27:21.731Z,31.79
2018-08-20T09:28:21.701Z,31.54
2018-08-20T09:29:21.670Z,31.6
2018-08-20T09:34:38.264Z,30.99
2018-08-20T09:34:50.477Z,31.22
2018-08-20T09:35:50.485Z,31.47
2018-08-20T09:36:50.938Z,31.78
2018-08-20T09:37:50.509Z,31.89
2018-08-20T09:38:50.468Z,31.95
2018-08-20T09:39:50.531Z,31.89
2018-08-20T09:40:50.481Z,31.92
2018-08-20T09:41:50.488Z,31.54
2018-08-20T09:42:50.473Z,31.28
2018-08-20T09:43:50.631Z,31.64
2018-08-20T09:44:50.509Z,32.19
2018-08-20T09:45:50.484Z,32.16
2018-08-20T09:46:50.488Z,32.15
2018-08-20T09:47:50.501Z,32.11
2018-08-20T09:48:50.508Z,32.08
2018-08-20T09:49:50.510Z,32.53
2018-08-20T09:56:29.362Z,32.07
2018-08-20T09:57:29.298Z,32.24
2018-08-20T09:58:29.310Z,32.71
2018-08-20T09:59:29.372Z,32.49
2018-08-20T10:00:29.315Z,32.71
2018-08-20T10:01:29.327Z,32.72
2018-08-20T10:02:29.302Z,32.61
2018-08-20T10:03:29.344Z,32.19
2018-08-20T10:04:29.355Z,32.41
2018-08-20T10:05:29.356Z,32.64
2018-08-20T10:06:29.328Z,32.24
2018-08-20T10:07:29.489Z,31.5
2018-08-20T10:08:29.595Z,31.85
2018-08-20T10:09:29.358Z,32.29
2018-08-20T10:10:29.368Z,32.76
2018-08-20T10:11:29.328Z,32.72
2018-08-20T10:12:29.338Z,32.15
2018-08-20T10:13:29.407Z,32.41
2018-08-20T10:14:29.316Z,32.49
2018-08-20T10:15:29.390Z,32.23
2018-08-20T10:16:29.499Z,32.24
2018-08-20T10:17:29.363Z,32.15
2018-08-20T10:18:29.546Z,32.35
2018-08-20T10:19:29.546Z,32.53
2018-08-20T10:20:29.402Z,32.29
2018-08-20T10:21:29.395Z,32.42
2018-08-20T10:22:29.361Z,32.51
2018-08-20T10:23:29.398Z,32.59
2018-08-20T10:24:29.577Z,32.94
2018-08-20T10:25:29.415Z,33
2018-08-20T10:26:29.387Z,33.26
2018-08-20T10:27:29.472Z,33.01
2018-08-20T10:28:29.396Z,33.32
2018-08-20T10:29:29.431Z,33.12
2018-08-20T10:30:29.444Z,33.26
2018-08-20T10:31:31.697Z,33.31
2018-08-20T10:32:29.373Z,33.01
2018-08-20T10:33:29.409Z,32.49
2018-08-20T10:34:29.436Z,32.61
2018-08-20T10:35:29.697Z,33.2
2018-08-20T10:36:29.559Z,33.47
2018-08-20T10:37:30.073Z,33.29
2018-08-20T10:38:29.445Z,33.54
2018-08-20T10:39:29.407Z,32.83
2018-08-20T10:40:29.413Z,33
2018-08-20T10:41:29.451Z,33.44
2018-08-20T10:42:29.430Z,33.44
2018-08-20T10:43:29.525Z,33.32
2018-08-20T10:44:29.462Z,33.47
2018-08-20T10:45:29.468Z,33.69
2018-08-20T10:46:29.456Z,33.89
2018-08-20T10:47:29.446Z,33.7
2018-08-20T10:48:29.453Z,33.89
2018-08-20T10:49:29.467Z,33.61
2018-08-20T10:50:29.479Z,33.82
2018-08-20T10:51:29.492Z,33.75
2018-08-20T10:52:29.454Z,33.76
2018-08-20T10:53:29.526Z,33.61
2018-08-20T10:54:29.438Z,33.23
2018-08-20T10:55:29.437Z,33.45
2018-08-20T10:56:29.593Z,33.5
2018-08-20T10:57:29.441Z,33.66
2018-08-20T10:58:29.489Z,32.97
2018-08-20T10:59:29.432Z,33.2
2018-08-20T11:00:29.466Z,33.31
2018-08-20T11:01:29.485Z,33.23
2018-08-20T11:02:29.487Z,33.2
2018-08-20T11:03:29.462Z,32.63
2018-08-20T11:04:29.603Z,33.15
2018-08-20T11:05:29.542Z,33.44
2018-08-20T11:06:29.483Z,33.33
2018-08-20T11:07:29.463Z,33.45
2018-08-20T11:08:29.455Z,33.63
2018-08-20T11:09:29.467Z,33.88
2018-08-20T11:10:29.536Z,33.53
2018-08-20T11:11:29.578Z,33.48
2018-08-20T11:12:29.451Z,33.44
2018-08-20T11:13:29.697Z,33.76
2018-08-20T11:14:29.503Z,33.72
2018-08-20T11:15:29.476Z,33.58
2018-08-20T11:16:29.486Z,33.39
2018-08-20T11:17:29.467Z,33.66
2018-08-20T11:18:29.658Z,33.12
2018-08-20T11:19:29.463Z,32.93
2018-08-20T11:20:29.535Z,33.35
2018-08-20T11:21:29.597Z,33.19
2018-08-20T11:22:29.481Z,33.33
2018-08-20T11:23:29.487Z,33.72
2018-08-20T11:24:29.551Z,33.4
2018-08-20T11:25:29.472Z,33.51
2018-08-20T11:26:29.507Z,33.22
2018-08-20T11:27:29.556Z,32.93
2018-08-20T11:28:29.483Z,32.98
2018-08-20T11:29:29.514Z,33.19
2018-08-20T11:30:29.502Z,33.42
2018-08-20T11:31:29.531Z,33.57
2018-08-20T11:32:29.484Z,33.54
2018-08-20T11:33:29.479Z,33.48
2018-08-20T11:34:29.580Z,33.26
2018-08-20T11:35:29.604Z,33.61
2018-08-20T11:36:29.539Z,33.2
2018-08-20T11:37:29.872Z,33.35
2018-08-20T11:38:29.528Z,33.32
2018-08-20T11:39:29.519Z,33.29
2018-08-20T11:40:29.503Z,33.15
2018-08-20T11:41:29.541Z,33.15
2018-08-20T11:42:29.543Z,33.17
2018-08-20T11:43:29.549Z,33.47
2018-08-20T11:44:29.531Z,33.84
2018-08-20T11:45:29.555Z,34.07
2018-08-20T11:46:29.631Z,33.94
2018-08-20T11:47:29.499Z,34.07
2018-08-20T11:48:29.507Z,34.14
2018-08-20T11:49:29.516Z,34.19
2018-08-20T11:50:29.526Z,34.13
2018-08-20T11:51:29.589Z,34.14
2018-08-20T11:52:29.563Z,34.03
2018-08-20T11:53:29.537Z,34.04
2018-08-20T11:54:29.513Z,33.72
2018-08-20T11:55:29.558Z,33.84
2018-08-20T11:56:29.528Z,33.39
2018-08-20T11:57:29.530Z,33.97
2018-08-20T11:58:29.642Z,34.13
2018-08-20T11:59:29.652Z,34.06
2018-08-20T12:00:29.551Z,34.16
2018-08-20T12:01:29.555Z,34.07
2018-08-20T12:02:29.523Z,33.65
2018-08-20T12:03:29.580Z,33.39
2018-08-20T12:04:29.538Z,33.75
2018-08-20T12:05:29.566Z,33.72
2018-08-20T12:06:29.566Z,33.75
2018-08-20T12:07:29.728Z,33.69
2018-08-20T12:08:29.541Z,33.94
2018-08-20T12:09:29.583Z,34.06
2018-08-20T12:10:29.578Z,34
2018-08-20T12:11:29.563Z,34.02
2018-08-20T12:12:29.597Z,34.13
2018-08-20T12:13:29.664Z,33.77
2018-08-20T12:14:29.571Z,34.04
2018-08-20T12:15:29.621Z,33.95
2018-08-20T12:16:29.581Z,32.98
2018-08-20T12:17:29.623Z,33.42
2018-08-20T12:18:29.612Z,33.51
2018-08-20T12:19:29.614Z,33.57
2018-08-20T12:20:29.626Z,33.73
2018-08-20T12:21:29.584Z,33.77
2018-08-20T12:22:29.699Z,34.06
2018-08-20T12:23:29.636Z,34.11
2018-08-20T12:24:29.645Z,34.37
2018-08-20T12:25:29.591Z,34.32
2018-08-20T12:26:29.609Z,34.06
2018-08-20T12:27:29.596Z,34.06
2018-08-20T12:28:29.632Z,34.33
2018-08-20T12:29:29.642Z,34.4
2018-08-20T12:30:29.619Z,34.46
2018-08-20T12:31:29.628Z,34.28
2018-08-20T12:32:29.652Z,34.28
2018-08-20T12:33:29.622Z,34.38
2018-08-20T12:34:29.764Z,34.66
2018-08-20T12:35:29.648Z,34.63
2018-08-20T12:36:29.618Z,34.28
2018-08-20T12:37:29.632Z,34.28
2018-08-20T12:38:29.653Z,34.28
2018-08-20T12:39:29.675Z,34.13
2018-08-20T12:40:29.742Z,34.38
2018-08-20T12:41:29.642Z,34.07
2018-08-20T12:42:29.647Z,33.82
2018-08-20T12:43:29.621Z,34.04
2018-08-20T12:44:29.665Z,34.14
2018-08-20T12:45:29.640Z,34.06
2018-08-20T12:46:29.670Z,34.14
2018-08-20T12:47:29.667Z,34.13
2018-08-20T12:48:29.651Z,34.18
2018-08-20T12:49:29.668Z,33.45
2018-08-20T12:50:29.697Z,33.17
2018-08-20T12:51:29.670Z,33.04
2018-08-20T12:52:29.644Z,33.45
2018-08-20T12:53:29.690Z,33.63
2018-08-20T12:54:29.764Z,33.58
2018-08-20T12:55:29.665Z,33.7
2018-08-20T12:56:29.748Z,33.91
2018-08-20T12:57:29.647Z,33.94
2018-08-20T12:58:29.723Z,33.51
2018-08-20T12:59:29.775Z,34.03
2018-08-20T13:00:29.893Z,33.98
2018-08-20T13:01:29.672Z,33.95
2018-08-20T13:02:29.692Z,34.25
2018-08-20T13:03:29.697Z,34.55
2018-08-20T13:04:29.651Z,34.22
2018-08-20T13:05:29.784Z,34.13
2018-08-20T13:06:29.740Z,34.02
2018-08-20T13:07:29.707Z,34.02
2018-08-20T13:08:29.996Z,34.5
2018-08-20T13:09:29.692Z,34.5
2018-08-20T13:10:29.723Z,34.4
2018-08-20T13:11:29.740Z,34.51
2018-08-20T13:12:29.770Z,34.32
2018-08-20T13:13:29.723Z,34.46
2018-08-20T13:14:29.690Z,34.44
2018-08-20T13:15:29.692Z,34.48
2018-08-20T13:16:29.748Z,34.46
2018-08-20T13:17:29.725Z,34.69
2018-08-20T13:18:29.728Z,34.46
2018-08-20T13:19:29.768Z,34.04
2018-08-20T13:20:29.725Z,34.29
2018-08-20T13:21:29.904Z,34.44
2018-08-20T13:22:29.711Z,34.48
2018-08-20T13:23:29.795Z,34.51
2018-08-20T13:24:29.757Z,34.71
2018-08-20T13:25:29.770Z,34.4
2018-08-20T13:26:29.742Z,34.31
2018-08-20T13:27:29.907Z,33.95
2018-08-20T13:28:29.736Z,34.22
2018-08-20T13:29:29.764Z,34.59
2018-08-20T13:30:29.915Z,34.7
2018-08-20T13:31:29.771Z,34.73
2018-08-20T13:32:29.817Z,34.43
2018-08-20T13:33:29.781Z,34.71
2018-08-20T13:34:29.751Z,34.82
2018-08-20T13:35:29.748Z,34.65
2018-08-20T13:36:29.755Z,34.58
2018-08-20T13:37:29.876Z,34.35
2018-08-20T13:38:29.777Z,34.22
2018-08-20T13:39:29.792Z,34.43
2018-08-20T13:41:04.637Z,34.13
2018-08-20T13:41:29.803Z,34.02
2018-08-20T13:42:29.768Z,34.21
2018-08-20T13:43:29.857Z,33.91
2018-08-20T13:44:29.758Z,34.25
2018-08-20T13:45:29.794Z,34.14
2018-08-20T13:46:29.766Z,34.46
2018-08-20T13:47:29.793Z,34.48
2018-08-20T13:48:30.042Z,34.46
2018-08-20T13:49:29.813Z,34.63
2018-08-20T13:50:29.745Z,34.86
2018-08-20T13:51:29.792Z,34.73
2018-08-20T13:52:29.782Z,34.28